createdAt,value
2019-04-29T00:00:54.942Z,2.00
2019-04-29T00:01:55.276Z,1.70
2019-04-29T00:02:55.706Z,2.30
2019-04-29T00:03:56.034Z,2.00
2019-04-29T00:04:56.579Z,1.80
2019-04-29T00:05:56.832Z,2.30
2019-04-29T00:06:57.321Z,2.20
2019-04-29T00:07:57.641Z,2.50
2019-04-29T00:08:58.043Z,2.30
2019-04-29T00:09:58.356Z,1.80
2019-04-29T00:10:58.887Z,1.80
2019-04-29T00:11:58.636Z,2.00
2019-04-29T00:12:59.051Z,2.00
2019-04-29T00:13:58.943Z,1.90
2019-04-29T00:14:59.388Z,2.00
2019-04-29T00:15:59.505Z,2.20
2019-04-29T00:16:59.994Z,2.20
2019-04-29T00:18:00.064Z,2.60
2019-04-29T00:19:00.312Z,2.30
2019-04-29T00:20:00.218Z,1.80
2019-04-29T00:21:00.893Z,1.60
2019-04-29T00:22:00.940Z,1.80
2019-04-29T00:23:01.410Z,2.60
2019-04-29T00:24:03.900Z,2.00
2019-04-29T00:25:01.854Z,2.10
2019-04-29T00:26:01.888Z,2.20
2019-04-29T00:27:02.440Z,2.20
2019-04-29T00:28:02.530Z,2.10
2019-04-29T00:29:02.368Z,2.20
2019-04-29T00:30:03.025Z,1.90
2019-04-29T00:31:03.220Z,2.10
2019-04-29T00:32:03.259Z,1.80
2019-04-29T00:33:03.505Z,2.00
2019-04-29T00:34:03.687Z,2.20
2019-04-29T00:35:03.601Z,1.90
2019-04-29T00:36:04.198Z,1.70
2019-04-29T00:37:04.236Z,2.30
2019-04-29T00:38:04.368Z,2.10
2019-04-29T00:39:04.501Z,1.60
2019-04-29T00:40:04.953Z,2.00
2019-04-29T00:41:04.884Z,1.90
2019-04-29T00:42:05.060Z,1.80
2019-04-29T00:43:05.291Z,1.70
2019-04-29T00:44:05.751Z,2.00
2019-04-29T00:45:05.837Z,1.80
2019-04-29T00:46:06.229Z,2.00
2019-04-29T00:47:06.474Z,2.20
2019-04-29T00:48:07.017Z,2.40
2019-04-29T00:49:07.214Z,1.90
2019-04-29T00:50:07.701Z,2.20
2019-04-29T00:51:07.936Z,1.90
2019-04-29T00:52:08.183Z,2.00
2019-04-29T00:53:08.967Z,2.20
2019-04-29T00:54:12.148Z,1.80
2019-04-29T00:55:09.175Z,2.10
2019-04-29T00:56:09.511Z,2.20
2019-04-29T00:57:09.725Z,2.00
2019-04-29T00:58:09.936Z,2.30
2019-04-29T00:59:10.307Z,2.20
2019-04-29T01:00:10.777Z,1.80
2019-04-29T01:01:11.099Z,1.70
2019-04-29T01:02:11.440Z,2.10
2019-04-29T01:03:11.320Z,2.00
2019-04-29T01:04:11.617Z,1.80
2019-04-29T01:05:11.986Z,1.90
2019-04-29T01:06:12.211Z,2.30
2019-04-29T01:07:12.849Z,2.10
2019-04-29T01:08:12.987Z,2.10
2019-04-29T01:09:12.962Z,2.10
2019-04-29T01:10:13.364Z,2.40
2019-04-29T01:11:13.539Z,2.30
2019-04-29T01:12:13.774Z,1.80
2019-04-29T01:13:14.048Z,2.30
2019-04-29T01:14:14.479Z,2.30
2019-04-29T01:15:14.868Z,2.50
2019-04-29T01:16:14.994Z,2.20
2019-04-29T01:17:15.228Z,1.70
2019-04-29T01:18:15.657Z,2.20
2019-04-29T01:19:15.861Z,1.90
2019-04-29T01:20:16.637Z,2.00
2019-04-29T01:21:16.452Z,2.30
2019-04-29T01:22:16.998Z,1.90
2019-04-29T01:23:16.800Z,2.30
2019-04-29T01:24:17.189Z,2.00
2019-04-29T01:25:17.430Z,1.90
2019-04-29T01:26:17.908Z,2.10
2019-04-29T01:27:17.980Z,2.40
2019-04-29T01:28:17.964Z,1.70
2019-04-29T01:29:18.315Z,1.70
2019-04-29T01:30:18.547Z,2.10
2019-04-29T01:31:18.885Z,1.90
2019-04-29T01:32:18.793Z,2.30
2019-04-29T01:33:19.267Z,1.90
2019-04-29T01:34:19.733Z,2.10
2019-04-29T01:35:19.757Z,1.90
2019-04-29T01:36:20.053Z,1.90
2019-04-29T01:37:20.150Z,1.90
2019-04-29T01:38:20.876Z,1.60
2019-04-29T01:39:21.314Z,1.90
2019-04-29T01:40:21.823Z,1.70
2019-04-29T01:41:21.957Z,1.90
2019-04-29T01:42:21.901Z,1.80
2019-04-29T01:43:22.056Z,2.00
2019-04-29T01:44:22.325Z,2.10
2019-04-29T01:45:22.581Z,1.70
2019-04-29T01:46:22.848Z,2.40
2019-04-29T01:47:23.128Z,1.40
2019-04-29T01:48:23.088Z,1.70
2019-04-29T01:49:23.547Z,1.80
2019-04-29T01:50:23.892Z,2.10
2019-04-29T01:51:24.132Z,1.80
2019-04-29T01:52:24.405Z,1.90
2019-04-29T01:53:24.633Z,1.80
2019-04-29T01:54:24.956Z,1.90
2019-04-29T01:55:25.439Z,1.80
2019-04-29T01:56:25.960Z,1.90
2019-04-29T01:57:25.923Z,1.60
2019-04-29T01:58:26.161Z,1.70
2019-04-29T01:59:26.488Z,2.00
2019-04-29T02:00:26.620Z,1.90
2019-04-29T02:01:27.066Z,1.80
2019-04-29T02:02:27.316Z,1.80
2019-04-29T02:03:27.788Z,1.60
2019-04-29T02:04:28.021Z,1.70
2019-04-29T02:05:28.232Z,1.90
2019-04-29T02:06:28.655Z,2.00
2019-04-29T02:07:28.918Z,1.80
2019-04-29T02:08:29.173Z,1.90
2019-04-29T02:09:29.430Z,2.00
2019-04-29T02:10:29.735Z,1.70
2019-04-29T02:11:30.122Z,2.10
2019-04-29T02:12:30.611Z,2.00
2019-04-29T02:13:30.831Z,2.20
2019-04-29T02:14:31.067Z,2.00
2019-04-29T02:15:31.366Z,2.10
2019-04-29T02:16:31.720Z,2.00
2019-04-29T02:17:31.988Z,2.30
2019-04-29T02:18:32.252Z,2.20
2019-04-29T02:19:32.676Z,2.30
2019-04-29T02:20:33.196Z,2.10
2019-04-29T02:21:32.986Z,2.00
2019-04-29T02:22:33.389Z,2.20
2019-04-29T02:23:33.773Z,2.20
2019-04-29T02:24:34.067Z,2.30
2019-04-29T02:25:34.231Z,2.60
2019-04-29T02:26:34.536Z,2.10
2019-04-29T02:27:35.006Z,1.90
2019-04-29T02:28:35.414Z,1.80
2019-04-29T02:29:35.845Z,2.10
2019-04-29T02:30:36.095Z,2.20
2019-04-29T02:31:36.513Z,2.10
2019-04-29T02:32:36.475Z,2.20
2019-04-29T02:33:36.604Z,1.90
2019-04-29T02:34:37.024Z,2.30
2019-04-29T02:35:37.267Z,2.10
2019-04-29T02:36:37.627Z,1.80
2019-04-29T02:37:37.893Z,2.10
2019-04-29T02:38:38.338Z,2.10
2019-04-29T02:39:38.357Z,1.80
2019-04-29T02:40:38.560Z,2.00
2019-04-29T02:41:38.840Z,2.10
2019-04-29T02:42:38.978Z,2.10
2019-04-29T02:43:38.985Z,2.00
2019-04-29T02:44:39.266Z,2.40
2019-04-29T02:45:39.677Z,2.10
2019-04-29T02:46:40.088Z,2.10
2019-04-29T02:47:40.399Z,2.20
2019-04-29T02:48:40.840Z,2.30
2019-04-29T02:49:41.056Z,1.90
2019-04-29T02:50:41.357Z,2.20
2019-04-29T02:51:41.705Z,2.50
2019-04-29T02:52:42.390Z,2.10
2019-04-29T02:53:42.490Z,2.20
2019-04-29T02:54:42.344Z,2.40
2019-04-29T02:55:42.896Z,2.20
2019-04-29T02:56:42.963Z,2.50
2019-04-29T02:57:42.923Z,2.00
2019-04-29T02:58:43.104Z,2.30
2019-04-29T02:59:43.223Z,2.20
2019-04-29T03:00:43.238Z,2.10
2019-04-29T03:01:43.731Z,2.30
2019-04-29T03:02:44.023Z,2.20
2019-04-29T03:03:44.102Z,2.20
2019-04-29T03:04:44.608Z,2.10
2019-04-29T03:05:44.901Z,1.60
2019-04-29T03:06:45.509Z,2.10
2019-04-29T03:07:46.017Z,1.90
2019-04-29T03:08:46.062Z,2.00
2019-04-29T03:09:45.903Z,2.40
2019-04-29T03:10:46.146Z,2.50
2019-04-29T03:11:46.397Z,1.90
2019-04-29T03:12:46.628Z,2.00
2019-04-29T03:13:46.860Z,2.00
2019-04-29T03:14:47.083Z,2.30
2019-04-29T03:15:47.857Z,2.00
2019-04-29T03:16:47.743Z,1.90
2019-04-29T03:17:47.975Z,1.90
2019-04-29T03:18:48.251Z,2.00
2019-04-29T03:19:48.289Z,2.10
2019-04-29T03:20:48.264Z,2.30
2019-04-29T03:21:48.610Z,2.50
2019-04-29T03:22:48.918Z,2.40
2019-04-29T03:23:49.147Z,2.80
2019-04-29T03:24:49.426Z,2.20
2019-04-29T03:25:50.001Z,2.60
2019-04-29T03:26:49.659Z,2.00
2019-04-29T03:27:49.902Z,2.40
2019-04-29T03:28:50.122Z,2.00
2019-04-29T03:29:50.758Z,2.40
2019-04-29T03:30:51.302Z,2.90
2019-04-29T03:31:50.986Z,2.50
2019-04-29T03:32:51.246Z,2.90
2019-04-29T03:33:51.348Z,2.80
2019-04-29T03:34:51.618Z,2.80
2019-04-29T03:35:51.871Z,2.20
2019-04-29T03:36:52.120Z,2.40
2019-04-29T03:37:52.335Z,2.60
2019-04-29T03:38:52.739Z,2.90
2019-04-29T03:39:52.967Z,2.80
2019-04-29T03:40:53.295Z,2.60
2019-04-29T03:41:53.542Z,3.00
2019-04-29T03:42:53.795Z,3.10
2019-04-29T03:43:53.981Z,2.60
2019-04-29T03:44:54.229Z,2.70
2019-04-29T03:45:54.434Z,3.00
2019-04-29T03:46:55.048Z,3.00
2019-04-29T03:47:55.287Z,2.70
2019-04-29T03:48:55.678Z,2.90
2019-04-29T03:49:56.030Z,3.40
2019-04-29T03:50:56.431Z,3.30
2019-04-29T03:51:56.684Z,3.40
2019-04-29T03:52:56.951Z,3.20
2019-04-29T03:53:57.190Z,2.90
2019-04-29T03:54:57.645Z,3.10
2019-04-29T03:55:57.922Z,3.10
2019-04-29T03:56:58.226Z,2.50
2019-04-29T03:57:58.453Z,3.00
2019-04-29T03:58:58.679Z,3.00
2019-04-29T03:59:59.000Z,3.10
2019-04-29T04:00:59.303Z,3.50
2019-04-29T04:01:59.353Z,3.00
2019-04-29T04:02:59.372Z,2.60
2019-04-29T04:03:59.525Z,2.40
2019-04-29T04:04:59.809Z,3.00
2019-04-29T04:05:59.978Z,2.30
2019-04-29T04:07:03.881Z,2.60
2019-04-29T04:08:00.566Z,2.70
2019-04-29T04:09:06.328Z,2.50
2019-04-29T04:10:01.009Z,2.80
2019-04-29T04:11:01.595Z,3.10
2019-04-29T04:12:01.629Z,3.30
2019-04-29T04:13:01.774Z,3.30
2019-04-29T04:14:01.919Z,3.10
2019-04-29T04:15:02.162Z,3.50
2019-04-29T04:16:02.257Z,3.60
2019-04-29T04:17:02.546Z,2.90
2019-04-29T04:18:02.287Z,3.50
2019-04-29T04:19:02.796Z,3.30
2019-04-29T04:20:03.176Z,3.00
2019-04-29T04:22:03.239Z,3.10
2019-04-29T04:23:03.267Z,3.10
2019-04-29T04:24:03.056Z,3.00
2019-04-29T04:25:03.847Z,3.20
2019-04-29T04:26:04.913Z,3.10
2019-04-29T04:27:04.150Z,2.80
2019-04-29T04:28:03.858Z,3.40
2019-04-29T04:29:04.516Z,2.90
2019-04-29T04:30:04.641Z,3.20
2019-04-29T04:31:07.019Z,3.10
2019-04-29T04:32:05.152Z,3.10
2019-04-29T04:33:05.627Z,3.30
2019-04-29T04:34:06.985Z,3.20
2019-04-29T04:35:06.455Z,3.10
2019-04-29T04:36:06.709Z,3.20
2019-04-29T04:37:09.748Z,4.10
2019-04-29T04:38:06.995Z,2.90
2019-04-29T04:40:07.561Z,3.20
2019-04-29T04:41:07.539Z,3.20
2019-04-29T04:42:07.794Z,2.90
2019-04-29T04:43:08.264Z,3.10
2019-04-29T04:44:08.728Z,3.00
2019-04-29T04:45:08.962Z,2.90
2019-04-29T04:46:09.373Z,3.50
2019-04-29T04:47:09.915Z,3.10
2019-04-29T04:48:09.953Z,2.80
2019-04-29T04:49:10.030Z,2.90
2019-04-29T04:50:10.187Z,3.30
2019-04-29T04:51:10.627Z,3.30
2019-04-29T04:52:10.916Z,3.40
2019-04-29T04:53:11.181Z,3.20
2019-04-29T04:54:11.434Z,3.30
2019-04-29T04:55:11.873Z,3.20
2019-04-29T04:56:12.268Z,3.10
2019-04-29T04:57:12.566Z,3.30
2019-04-29T04:58:12.676Z,3.70
2019-04-29T04:59:13.137Z,3.60
2019-04-29T05:00:12.956Z,3.50
2019-04-29T05:01:13.352Z,3.60
2019-04-29T05:02:13.353Z,3.90
2019-04-29T05:03:13.603Z,3.90
2019-04-29T05:04:13.934Z,4.00
2019-04-29T05:05:14.531Z,3.40
2019-04-29T05:06:14.420Z,4.00
2019-04-29T05:07:14.847Z,3.70
2019-04-29T05:08:15.178Z,4.10
2019-04-29T05:09:15.568Z,4.10
2019-04-29T05:10:15.886Z,3.90
2019-04-29T05:11:15.808Z,4.00
2019-04-29T05:12:15.790Z,3.80
2019-04-29T05:13:27.377Z,3.60
2019-04-29T05:14:16.504Z,3.80
2019-04-29T05:15:16.932Z,4.30
2019-04-29T05:16:17.405Z,4.30
2019-04-29T05:17:17.871Z,4.10
2019-04-29T05:18:18.097Z,4.30
2019-04-29T05:19:18.328Z,4.80
2019-04-29T05:20:18.558Z,4.10
2019-04-29T05:21:18.863Z,4.50
2019-04-29T05:22:19.085Z,3.70
2019-04-29T05:23:19.476Z,4.70
2019-04-29T05:24:19.689Z,4.60
2019-04-29T05:25:19.937Z,5.10
2019-04-29T05:26:20.190Z,5.10
2019-04-29T05:27:20.520Z,5.10
2019-04-29T05:28:20.811Z,5.20
2019-04-29T05:29:20.904Z,4.60
2019-04-29T05:30:21.294Z,5.10
2019-04-29T05:31:21.301Z,6.30
2019-04-29T05:32:21.692Z,6.50
2019-04-29T05:33:21.964Z,5.70
2019-04-29T05:34:22.199Z,6.10
2019-04-29T05:35:24.812Z,5.30
2019-04-29T05:36:23.082Z,6.50
2019-04-29T05:37:23.025Z,6.10
2019-04-29T05:38:23.222Z,6.90
2019-04-29T05:39:23.531Z,7.60
2019-04-29T05:40:23.914Z,7.40
2019-04-29T05:41:23.905Z,9.00
2019-04-29T05:42:24.111Z,7.80
2019-04-29T05:43:27.240Z,7.60
2019-04-29T05:44:24.487Z,7.60
2019-04-29T05:45:24.814Z,7.80
2019-04-29T05:46:24.785Z,7.90
2019-04-29T05:47:25.191Z,8.70
2019-04-29T05:48:27.674Z,10.00
2019-04-29T05:49:25.730Z,9.50
2019-04-29T05:50:26.013Z,9.20
2019-04-29T05:51:27.190Z,10.30
2019-04-29T05:52:29.846Z,9.70
2019-04-29T05:53:26.601Z,8.60
2019-04-29T05:54:31.519Z,9.20
2019-04-29T05:55:27.236Z,9.20
2019-04-29T05:56:27.759Z,9.00
2019-04-29T05:57:28.011Z,9.10
2019-04-29T05:58:28.327Z,10.30
2019-04-29T05:59:28.575Z,8.90
2019-04-29T06:00:28.796Z,9.20
2019-04-29T06:01:29.140Z,9.60
2019-04-29T06:02:33.601Z,9.90
2019-04-29T06:03:33.480Z,9.50
2019-04-29T06:04:30.584Z,9.60
2019-04-29T06:05:30.700Z,10.40
2019-04-29T06:06:30.952Z,8.80
2019-04-29T06:07:31.322Z,10.80
2019-04-29T06:08:34.554Z,10.10
2019-04-29T06:09:31.833Z,10.50
2019-04-29T06:10:32.070Z,9.50
2019-04-29T06:11:32.329Z,10.00
2019-04-29T06:12:32.837Z,9.20
2019-04-29T06:13:32.776Z,8.00
2019-04-29T06:14:33.135Z,8.90
2019-04-29T06:15:33.379Z,8.70
2019-04-29T06:16:33.629Z,7.70
2019-04-29T06:17:33.874Z,8.20
2019-04-29T06:18:34.116Z,6.30
2019-04-29T06:19:35.107Z,6.60
2019-04-29T06:20:34.605Z,5.90
2019-04-29T06:21:34.981Z,7.00
2019-04-29T06:22:37.823Z,7.10
2019-04-29T06:23:35.875Z,6.80
2019-04-29T06:24:36.965Z,6.60
2019-04-29T06:25:36.431Z,6.80
2019-04-29T06:26:36.911Z,6.50
2019-04-29T06:27:37.162Z,6.60
2019-04-29T06:28:37.416Z,6.10
2019-04-29T06:29:37.886Z,5.60
2019-04-29T06:30:40.552Z,5.50
2019-04-29T06:31:38.146Z,6.20
2019-04-29T06:32:38.617Z,5.80
2019-04-29T06:33:38.935Z,5.70
2019-04-29T06:34:40.049Z,5.60
2019-04-29T06:35:39.520Z,5.20
2019-04-29T06:36:39.777Z,5.40
2019-04-29T06:37:40.041Z,5.30
2019-04-29T06:38:40.245Z,5.40
2019-04-29T06:39:40.561Z,5.60
2019-04-29T06:41:45.088Z,5.40
2019-04-29T06:42:40.840Z,5.90
2019-04-29T06:43:41.073Z,5.50
2019-04-29T06:44:44.398Z,5.60
2019-04-29T06:45:41.573Z,5.20
2019-04-29T06:46:41.934Z,5.30
2019-04-29T06:47:42.184Z,5.30
2019-04-29T06:48:42.421Z,5.20
2019-04-29T06:49:42.563Z,5.50
2019-04-29T06:50:42.458Z,5.80
2019-04-29T06:51:42.713Z,4.90
2019-04-29T06:52:43.039Z,5.40
2019-04-29T06:53:43.367Z,5.20
2019-04-29T06:54:43.660Z,6.40
2019-04-29T06:55:44.084Z,6.00
2019-04-29T06:56:44.773Z,6.00
2019-04-29T06:57:44.840Z,5.50
2019-04-29T06:58:45.348Z,4.80
2019-04-29T06:59:47.537Z,5.10
2019-04-29T07:00:45.735Z,5.70
2019-04-29T07:01:45.783Z,5.70
2019-04-29T07:02:49.962Z,4.90
2019-04-29T07:03:46.372Z,5.80
2019-04-29T07:04:46.754Z,5.50
2019-04-29T07:05:46.971Z,5.30
2019-04-29T07:06:57.288Z,5.30
2019-04-29T07:07:47.931Z,4.80
2019-04-29T07:08:48.333Z,4.90
2019-04-29T07:09:48.812Z,5.60
2019-04-29T07:10:48.619Z,5.20
2019-04-29T07:11:49.081Z,6.00
2019-04-29T07:12:49.296Z,5.30
2019-04-29T07:13:53.421Z,4.70
2019-04-29T07:14:49.926Z,5.70
2019-04-29T07:15:50.406Z,4.80
2019-04-29T07:16:50.903Z,5.60
2019-04-29T07:17:50.673Z,5.00
2019-04-29T07:18:53.613Z,5.70
2019-04-29T07:19:51.188Z,4.70
2019-04-29T07:20:51.543Z,5.40
2019-04-29T07:21:54.953Z,5.00
2019-04-29T07:22:51.624Z,5.30
2019-04-29T07:23:51.884Z,5.10
2019-04-29T07:24:52.164Z,5.50
2019-04-29T07:25:52.432Z,5.50
2019-04-29T07:26:52.498Z,5.70
2019-04-29T07:27:53.058Z,5.20
2019-04-29T07:28:55.552Z,5.40
2019-04-29T07:29:53.316Z,5.30
2019-04-29T07:31:02.641Z,4.80
2019-04-29T07:31:53.947Z,5.30
2019-04-29T07:32:54.189Z,5.40
2019-04-29T07:33:57.959Z,5.40
2019-04-29T07:34:54.715Z,5.20
2019-04-29T07:35:54.533Z,5.90
2019-04-29T07:36:57.640Z,5.70
2019-04-29T07:37:54.696Z,5.40
2019-04-29T07:38:56.662Z,5.50
2019-04-29T07:39:55.314Z,5.50
2019-04-29T07:40:55.744Z,5.30
2019-04-29T07:41:56.126Z,5.30
2019-04-29T07:42:56.368Z,6.20
2019-04-29T07:43:56.821Z,5.70
2019-04-29T07:44:57.051Z,5.90
2019-04-29T07:45:58.752Z,5.50
2019-04-29T07:47:01.846Z,5.50
2019-04-29T07:48:01.762Z,6.50
2019-04-29T07:49:01.823Z,5.90
2019-04-29T07:49:58.995Z,6.50
2019-04-29T07:51:03.508Z,5.50
2019-04-29T07:51:59.500Z,6.20
2019-04-29T07:52:59.985Z,6.20
2019-04-29T07:54:00.551Z,6.30
2019-04-29T07:55:00.348Z,5.60
2019-04-29T07:56:01.645Z,6.10
2019-04-29T07:57:01.011Z,5.40
2019-04-29T07:58:01.573Z,6.20
2019-04-29T07:59:02.993Z,6.00
2019-04-29T08:00:01.591Z,6.10
2019-04-29T08:01:01.820Z,6.00
2019-04-29T08:02:02.280Z,6.10
2019-04-29T08:03:02.681Z,5.70
2019-04-29T08:04:02.903Z,6.50
2019-04-29T08:05:02.904Z,6.80
2019-04-29T08:06:03.092Z,6.00
2019-04-29T08:07:03.067Z,5.90
2019-04-29T08:08:03.106Z,6.00
2019-04-29T08:09:07.786Z,5.60
2019-04-29T08:10:02.971Z,5.80
2019-04-29T08:11:03.547Z,5.40
2019-04-29T08:12:03.375Z,5.00
2019-04-29T08:13:03.917Z,4.60
2019-04-29T08:14:03.704Z,5.10
2019-04-29T08:15:07.747Z,4.80
2019-04-29T08:16:04.570Z,5.20
2019-04-29T08:17:04.621Z,5.20
2019-04-29T08:18:06.704Z,5.30
2019-04-29T08:19:05.205Z,5.20
2019-04-29T08:20:05.279Z,4.70
2019-04-29T08:21:05.140Z,5.00
2019-04-29T08:22:05.344Z,5.00
2019-04-29T08:23:05.810Z,4.80
2019-04-29T08:24:06.271Z,4.60
2019-04-29T08:25:06.618Z,4.60
2019-04-29T08:26:06.855Z,4.50
2019-04-29T08:27:07.096Z,4.60
2019-04-29T08:28:07.409Z,5.20
2019-04-29T08:29:07.654Z,5.10
2019-04-29T08:30:11.314Z,4.60
2019-04-29T08:31:08.179Z,4.80
2019-04-29T08:32:08.579Z,4.40
2019-04-29T08:33:12.075Z,4.00
2019-04-29T08:34:09.129Z,3.90
2019-04-29T08:35:09.763Z,4.10
2019-04-29T08:36:09.986Z,4.50
2019-04-29T08:37:10.216Z,4.40
2019-04-29T08:38:10.551Z,4.60
2019-04-29T08:39:10.801Z,4.70
2019-04-29T08:40:16.324Z,4.30
2019-04-29T08:41:11.542Z,4.00
2019-04-29T08:42:12.009Z,3.80
2019-04-29T08:43:15.923Z,4.60
2019-04-29T08:44:16.379Z,3.80
2019-04-29T08:45:12.875Z,4.10
2019-04-29T08:46:13.313Z,4.10
2019-04-29T08:47:13.631Z,4.20
2019-04-29T08:48:13.733Z,4.40
2019-04-29T08:49:14.815Z,4.50
2019-04-29T08:50:14.287Z,3.80
2019-04-29T08:51:14.079Z,3.80
2019-04-29T08:52:14.317Z,4.30
2019-04-29T08:53:14.778Z,4.90
2019-04-29T08:54:15.996Z,4.60
2019-04-29T08:55:15.753Z,3.80
2019-04-29T08:56:15.480Z,4.40
2019-04-29T08:57:16.025Z,4.10
2019-04-29T08:58:16.023Z,4.60
2019-04-29T08:59:16.268Z,3.80
2019-04-29T09:00:16.830Z,4.40
2019-04-29T09:01:16.572Z,4.10
2019-04-29T09:02:17.058Z,4.00
2019-04-29T09:03:18.778Z,4.30
2019-04-29T09:04:17.976Z,3.80
2019-04-29T09:05:18.213Z,3.60
2019-04-29T09:06:18.438Z,3.30
2019-04-29T09:07:22.081Z,3.80
2019-04-29T09:08:19.084Z,3.60
2019-04-29T09:09:28.800Z,4.10
2019-04-29T09:10:19.886Z,3.70
2019-04-29T09:11:20.121Z,3.50
2019-04-29T09:12:24.222Z,4.10
2019-04-29T09:13:20.990Z,3.80
2019-04-29T09:14:21.333Z,3.70
2019-04-29T09:15:21.563Z,3.60
2019-04-29T09:16:21.816Z,3.60
2019-04-29T09:17:22.060Z,3.60
2019-04-29T09:18:22.400Z,3.90
2019-04-29T09:19:22.650Z,3.10
2019-04-29T09:20:22.923Z,3.50
2019-04-29T09:21:23.167Z,3.30
2019-04-29T09:22:23.472Z,3.60
2019-04-29T09:23:23.928Z,3.20
2019-04-29T09:24:23.859Z,3.60
2019-04-29T09:25:26.377Z,3.40
2019-04-29T09:26:24.985Z,3.20
2019-04-29T09:27:25.137Z,3.70
2019-04-29T09:28:28.124Z,3.60
2019-04-29T09:29:26.120Z,3.50
2019-04-29T09:30:25.733Z,3.50
2019-04-29T09:31:25.958Z,3.30
2019-04-29T09:32:26.187Z,3.50
2019-04-29T09:33:26.650Z,3.10
2019-04-29T09:34:26.884Z,3.20
2019-04-29T09:35:28.776Z,3.00
2019-04-29T09:36:28.972Z,3.40
2019-04-29T09:37:27.439Z,3.00
2019-04-29T09:38:27.909Z,3.10
2019-04-29T09:39:42.015Z,3.20
2019-04-29T09:41:30.623Z,3.10
2019-04-29T09:42:30.849Z,3.30
2019-04-29T09:43:28.842Z,3.20
2019-04-29T09:44:29.461Z,3.20
2019-04-29T09:45:29.697Z,3.00
2019-04-29T09:46:33.967Z,3.00
2019-04-29T09:47:30.044Z,3.00
2019-04-29T09:48:30.276Z,3.20
2019-04-29T09:49:30.599Z,3.10
2019-04-29T09:50:34.245Z,3.20
2019-04-29T09:51:31.087Z,3.30
2019-04-29T09:52:31.310Z,3.40
2019-04-29T09:53:31.724Z,3.60
2019-04-29T09:54:31.967Z,3.00
2019-04-29T09:55:35.650Z,3.50
2019-04-29T09:56:34.707Z,3.30
2019-04-29T09:57:33.140Z,3.00
2019-04-29T09:58:33.438Z,3.00
2019-04-29T09:59:33.672Z,3.70
2019-04-29T10:00:36.321Z,3.00
2019-04-29T10:01:34.063Z,3.00
2019-04-29T10:02:34.533Z,2.90
2019-04-29T10:03:34.853Z,2.90
2019-04-29T10:04:34.829Z,2.70
2019-04-29T10:05:35.312Z,3.30
2019-04-29T10:06:35.308Z,3.30
2019-04-29T10:08:35.484Z,3.10
2019-04-29T10:09:35.744Z,3.20
2019-04-29T10:10:37.347Z,2.80
2019-04-29T10:11:36.052Z,3.10
2019-04-29T10:12:36.310Z,2.70
2019-04-29T10:13:36.686Z,2.80
2019-04-29T10:14:37.225Z,2.80
2019-04-29T10:15:37.213Z,3.00
2019-04-29T10:16:37.242Z,3.00
2019-04-29T10:17:37.500Z,2.50
2019-04-29T10:18:37.608Z,2.70
2019-04-29T10:20:37.874Z,2.70
2019-04-29T10:21:37.909Z,2.80
2019-04-29T10:22:38.137Z,2.40
2019-04-29T10:24:38.636Z,2.70
2019-04-29T10:25:38.888Z,2.60
2019-04-29T10:26:39.096Z,2.70
2019-04-29T10:27:39.320Z,2.50
2019-04-29T10:28:39.562Z,2.20
2019-04-29T10:29:40.093Z,2.50
2019-04-29T10:30:39.964Z,1.90
2019-04-29T10:31:40.271Z,2.30
2019-04-29T10:32:42.338Z,2.20
2019-04-29T10:33:40.660Z,2.60
2019-04-29T10:34:43.148Z,2.50
2019-04-29T10:35:45.157Z,2.40
2019-04-29T10:36:41.808Z,2.80
2019-04-29T10:37:42.374Z,2.70
2019-04-29T10:38:45.005Z,2.20
2019-04-29T10:39:43.079Z,2.00
2019-04-29T10:40:43.747Z,2.20
2019-04-29T10:41:43.843Z,2.10
2019-04-29T10:42:44.135Z,2.20
2019-04-29T10:43:44.585Z,2.50
2019-04-29T10:44:44.999Z,2.20
2019-04-29T10:45:45.041Z,2.20
2019-04-29T10:46:45.457Z,2.30
2019-04-29T10:47:45.925Z,2.40
2019-04-29T10:48:45.954Z,2.60
2019-04-29T10:49:46.998Z,2.10
2019-04-29T10:50:47.186Z,2.00
2019-04-29T10:51:46.972Z,1.90
2019-04-29T10:52:47.203Z,2.30
2019-04-29T10:53:50.856Z,1.90
2019-04-29T10:54:51.678Z,1.90
2019-04-29T10:55:48.403Z,2.10
2019-04-29T10:56:48.424Z,2.40
2019-04-29T10:57:49.686Z,2.10
2019-04-29T10:58:49.223Z,2.30
2019-04-29T10:59:50.260Z,2.50
2019-04-29T11:00:52.722Z,2.10
2019-04-29T11:02:00.644Z,1.90
2019-04-29T11:02:51.137Z,2.00
2019-04-29T11:03:50.815Z,2.10
2019-04-29T11:04:51.145Z,1.60
2019-04-29T11:06:00.347Z,1.80
2019-04-29T11:06:51.781Z,1.80
2019-04-29T11:07:51.705Z,2.00
2019-04-29T11:08:52.254Z,2.20
2019-04-29T11:09:52.675Z,2.30
2019-04-29T11:11:01.845Z,1.80
2019-04-29T11:11:52.898Z,1.70
2019-04-29T11:12:52.901Z,2.00
2019-04-29T11:13:53.178Z,2.30
2019-04-29T11:14:53.628Z,1.80
2019-04-29T11:15:53.870Z,2.20
2019-04-29T11:16:54.115Z,1.60
2019-04-29T11:17:59.412Z,1.70
2019-04-29T11:18:59.164Z,1.80
2019-04-29T11:19:55.362Z,1.90
2019-04-29T11:20:55.599Z,1.70
2019-04-29T11:21:55.751Z,2.10
2019-04-29T11:22:56.147Z,1.80
2019-04-29T11:23:56.550Z,2.00
2019-04-29T11:24:56.957Z,2.00
2019-04-29T11:25:56.878Z,1.70
2019-04-29T11:27:10.987Z,2.00
2019-04-29T11:27:57.482Z,2.00
2019-04-29T11:30:02.897Z,1.50
2019-04-29T11:30:57.775Z,1.60
2019-04-29T11:31:58.013Z,1.60
2019-04-29T11:33:00.031Z,1.80
2019-04-29T11:33:58.916Z,1.90
2019-04-29T11:34:59.214Z,1.60
2019-04-29T11:36:04.095Z,1.90
2019-04-29T11:36:59.750Z,1.60
2019-04-29T11:38:00.099Z,1.60
2019-04-29T11:39:00.214Z,1.90
2019-04-29T11:40:00.566Z,1.90
2019-04-29T11:41:01.350Z,1.40
2019-04-29T11:42:01.651Z,1.50
2019-04-29T11:43:01.520Z,1.50
2019-04-29T11:44:01.428Z,1.60
2019-04-29T11:45:03.641Z,1.40
2019-04-29T11:46:02.185Z,1.70
2019-04-29T11:47:02.743Z,1.40
2019-04-29T11:48:03.067Z,1.20
2019-04-29T11:49:03.112Z,1.70
2019-04-29T11:50:02.997Z,1.30
2019-04-29T11:51:03.449Z,1.50
2019-04-29T11:52:09.656Z,1.50
2019-04-29T11:53:03.958Z,1.20
2019-04-29T11:54:04.036Z,1.20
2019-04-29T11:55:04.393Z,1.50
2019-04-29T11:56:04.955Z,1.30
2019-04-29T11:57:05.185Z,1.30
2019-04-29T11:58:05.482Z,1.20
2019-04-29T11:59:05.724Z,1.40
2019-04-29T12:00:05.834Z,1.60
2019-04-29T12:01:08.637Z,1.30
2019-04-29T12:02:06.281Z,1.30
2019-04-29T12:03:06.567Z,1.40
2019-04-29T12:04:06.424Z,1.20
2019-04-29T12:05:08.667Z,1.40
2019-04-29T12:06:06.820Z,1.30
2019-04-29T12:07:06.813Z,1.20
2019-04-29T12:08:15.960Z,1.70
2019-04-29T12:09:07.745Z,1.60
2019-04-29T12:10:07.970Z,1.50
2019-04-29T12:11:07.774Z,1.30
2019-04-29T12:12:12.635Z,1.40
2019-04-29T12:13:08.507Z,1.20
2019-04-29T12:14:08.984Z,1.30
2019-04-29T12:15:09.100Z,1.20
2019-04-29T12:16:09.514Z,1.20
2019-04-29T12:17:09.535Z,1.40
2019-04-29T12:18:09.735Z,1.40
2019-04-29T12:19:09.883Z,1.30
2019-04-29T12:20:10.255Z,1.40
2019-04-29T12:21:10.480Z,1.40
2019-04-29T12:22:25.930Z,1.20
2019-04-29T12:23:15.747Z,1.20
2019-04-29T12:24:11.747Z,1.20
2019-04-29T12:25:11.500Z,1.30
2019-04-29T12:26:12.011Z,1.40
2019-04-29T12:27:14.904Z,1.30
2019-04-29T12:28:18.766Z,1.50
2019-04-29T12:29:13.589Z,1.30
2019-04-29T12:30:12.914Z,1.50
2019-04-29T12:31:13.404Z,1.30
2019-04-29T12:32:13.533Z,1.40
2019-04-29T12:33:13.589Z,1.50
2019-04-29T12:34:13.855Z,1.20
2019-04-29T12:35:16.751Z,1.70
2019-04-29T12:36:16.544Z,1.30
2019-04-29T12:37:15.135Z,1.50
2019-04-29T12:38:15.637Z,1.40
2019-04-29T12:39:19.813Z,1.60
2019-04-29T12:40:16.791Z,1.40
2019-04-29T12:41:21.032Z,1.50
2019-04-29T12:42:16.876Z,1.40
2019-04-29T12:43:17.765Z,1.50
2019-04-29T12:44:17.481Z,1.30
2019-04-29T12:45:19.602Z,1.50
2019-04-29T12:46:17.974Z,1.30
2019-04-29T12:47:26.232Z,1.40
2019-04-29T12:48:24.898Z,1.40
2019-04-29T12:49:19.071Z,1.60
2019-04-29T12:50:21.608Z,1.60
2019-04-29T12:51:19.345Z,1.50
2019-04-29T12:52:19.354Z,1.40
2019-04-29T12:53:19.108Z,1.30
2019-04-29T12:54:19.490Z,1.50
2019-04-29T12:55:24.901Z,1.60
2019-04-29T12:56:19.641Z,1.40
2019-04-29T12:57:23.503Z,1.40
2019-04-29T12:58:24.245Z,1.50
2019-04-29T12:59:20.296Z,1.10
2019-04-29T13:00:20.650Z,1.40
2019-04-29T13:01:20.826Z,1.20
2019-04-29T13:02:24.453Z,1.40
2019-04-29T13:03:21.431Z,1.50
2019-04-29T13:04:21.711Z,1.10
2019-04-29T13:05:21.737Z,1.20
2019-04-29T13:06:24.126Z,1.40
2019-04-29T13:07:22.743Z,1.90
2019-04-29T13:08:22.909Z,1.30
2019-04-29T13:09:23.204Z,1.20
2019-04-29T13:10:23.442Z,1.20
2019-04-29T13:11:35.676Z,1.40
2019-04-29T13:12:26.885Z,1.30
2019-04-29T13:13:24.266Z,1.50
2019-04-29T13:14:28.737Z,1.20
2019-04-29T13:15:24.864Z,1.20
2019-04-29T13:16:25.418Z,1.40
2019-04-29T13:17:26.638Z,1.70
2019-04-29T13:18:25.309Z,1.40
2019-04-29T13:19:29.826Z,1.30
2019-04-29T13:20:25.678Z,1.70
2019-04-29T13:21:25.926Z,1.20
2019-04-29T13:22:26.202Z,1.10
2019-04-29T13:23:34.845Z,1.30
2019-04-29T13:24:26.906Z,1.40
2019-04-29T13:25:26.977Z,1.20
2019-04-29T13:26:28.732Z,1.40
2019-04-29T13:27:27.872Z,1.40
2019-04-29T13:28:30.362Z,1.30
2019-04-29T13:29:32.084Z,1.50
2019-04-29T13:30:28.336Z,1.60